Time;durP1;ratioP1;P1;durP2;ratioP2;P2;SDS_P1;SDS_P2;PMS_P1;PMS_P2;Temp;Humidity;BMP_temperature;BMP_pressure;BME280_temperature;BME280_humidity;BME280_pressure;Samples;Min_cycle;Max_cycle;Signal;HPM_P1;HPM_P2
2021/06/04 04:49:37;;;;;;;12.40;8.55;;;;;;;12.02;71.07;100815.84;5149300;27;20323;-65
2021/06/04 04:52:11;;;;;;;16.95;10.30;;;;;;;12.16;71.38;100815.19;5136596;27;20451;-71
2021/06/04 04:54:37;;;;;;;14.05;9.57;;;;;;;12.33;70.31;100820.56;5132674;27;20895;-64
2021/06/04 04:57:04;;;;;;;15.82;9.68;;;;;;;12.49;71.07;100825.06;5132847;27;20020;-66
2021/06/04 04:59:29;;;;;;;13.23;9.00;;;;;;;12.69;71.30;100825.56;5132326;27;20531;-64
2021/06/04 05:01:55;;;;;;;13.95;9.48;;;;;;;12.87;71.00;100820.03;5130983;27;25062;-63
2021/06/04 05:04:20;;;;;;;13.90;8.77;;;;;;;13.10;71.04;100825.50;5130756;27;35350;-64
2021/06/04 05:06:45;;;;;;;14.48;9.57;;;;;;;13.28;70.49;100824.44;5131688;27;39134;-61
2021/06/04 05:09:11;;;;;;;15.55;9.32;;;;;;;13.45;70.90;100820.72;5132055;27;22445;-64
2021/06/04 05:11:36;;;;;;;14.88;8.68;;;;;;;13.62;70.80;100829.50;5131835;27;29685;-60
2021/06/04 05:14:02;;;;;;;12.93;8.73;;;;;;;13.77;70.20;100829.59;5132837;27;20024;-60
2021/06/04 05:16:27;;;;;;;10.32;9.02;;;;;;;13.92;70.04;100827.00;5132398;27;20028;-66
2021/06/04 05:18:53;;;;;;;12.73;8.68;;;;;;;14.05;69.67;100819.25;5132705;27;20467;-60
2021/06/04 05:21:18;;;;;;;11.50;8.43;;;;;;;14.18;68.59;100826.66;5131076;27;20031;-61
2021/06/04 05:23:44;;;;;;;12.43;8.13;;;;;;;14.29;68.57;100833.47;5131267;27;20024;-60
2021/06/04 05:26:10;;;;;;;9.77;8.27;;;;;;;14.43;68.51;100828.34;5132396;27;20063;-60
2021/06/04 05:28:35;;;;;;;11.52;8.25;;;;;;;14.55;68.35;100822.34;5132238;27;20042;-63
2021/06/04 05:31:04;;;;;;;12.50;8.20;;;;;;;14.72;68.37;100820.41;5132461;27;20023;-60
2021/06/04 05:33:33;;;;;;;11.30;7.82;;;;;;;14.93;68.28;100818.03;5132022;27;20034;-62
2021/06/04 05:36:03;;;;;;;10.85;8.15;;;;;;;15.09;67.36;100815.19;5132036;27;20648;-65
2021/06/04 05:38:28;;;;;;;9.93;8.07;;;;;;;15.18;66.52;100822.09;5131658;27;20077;-65
2021/06/04 05:40:55;;;;;;;8.90;7.00;;;;;;;15.29;66.35;100806.56;5130291;27;26074;-64
2021/06/04 05:43:23;;;;;;;10.07;7.57;;;;;;;15.39;65.65;100805.25;5130201;27;20024;-62
2021/06/04 05:45:49;;;;;;;12.70;7.55;;;;;;;15.52;65.03;100823.38;5131994;27;20032;-67
2021/06/04 05:48:15;;;;;;;14.55;7.78;;;;;;;15.67;65.04;100817.16;5131397;27;20109;-72
2021/06/04 05:50:42;;;;;;;11.38;7.57;;;;;;;15.80;65.64;100820.03;5132125;27;20027;-63
2021/06/04 05:53:08;;;;;;;12.32;7.72;;;;;;;16.03;65.94;100819.03;5129946;27;20028;-63
2021/06/04 05:55:35;;;;;;;10.32;7.30;;;;;;;16.32;65.77;100822.59;5130226;27;20779;-64
2021/06/04 05:58:01;;;;;;;10.63;8.00;;;;;;;16.55;65.05;100819.72;5130208;27;20526;-67
2021/06/04 06:00:35;;;;;;;14.27;6.97;;;;;;;16.74;64.66;100820.91;5119050;27;36661;-61
2021/06/04 06:03:00;;;;;;;9.93;6.60;;;;;;;16.98;64.87;100816.16;5116877;28;20028;-59
2021/06/04 06:05:26;;;;;;;9.75;6.93;;;;;;;17.17;64.13;100825.38;5117867;28;20032;-65
2021/06/04 06:07:51;;;;;;;13.95;7.53;;;;;;;17.38;64.10;100824.44;5116850;27;40841;-61
2021/06/04 06:10:16;;;;;;;10.13;6.50;;;;;;;17.59;63.08;100832.41;5115911;28;34964;-66
2021/06/04 06:12:42;;;;;;;10.00;6.60;;;;;;;17.66;62.45;100827.06;5116591;27;38587;-64
2021/06/04 06:15:09;;;;;;;12.23;5.97;;;;;;;17.90;62.70;100825.66;5117629;27;20349;-64
2021/06/04 06:17:34;;;;;;;8.00;5.35;;;;;;;18.10;62.01;100830.31;5116432;28;20162;-64
2021/06/04 06:20:00;;;;;;;8.95;5.63;;;;;;;18.29;61.12;100839.47;5117259;27;20460;-67
2021/06/04 06:22:25;;;;;;;10.27;5.50;;;;;;;18.45;61.06;100840.91;5117085;27;20128;-70
2021/06/04 06:24:51;;;;;;;8.07;5.50;;;;;;;18.63;60.51;100843.03;5090596;28;20053;-66
2021/06/04 06:27:17;;;;;;;14.50;7.18;;;;;;;18.68;58.91;100834.28;5096699;28;20039;-64
2021/06/04 06:29:42;;;;;;;10.30;5.45;;;;;;;18.73;58.63;100838.03;5096634;28;20035;-63
2021/06/04 06:32:08;;;;;;;8.82;5.10;;;;;;;18.87;59.14;100844.25;5095963;28;39383;-65
2021/06/04 06:34:34;;;;;;;18.65;6.13;;;;;;;19.05;58.72;100842.81;5096228;28;20036;-65
2021/06/04 06:36:59;;;;;;;11.45;5.57;;;;;;;19.38;58.96;100836.47;5095893;28;20029;-61
2021/06/04 06:39:27;;;;;;;7.78;5.20;;;;;;;19.59;57.22;100832.69;5097024;28;20033;-66
2021/06/04 06:41:52;;;;;;;10.73;5.10;;;;;;;19.65;56.23;100842.63;5096788;28;20029;-68
2021/06/04 06:44:18;;;;;;;10.25;6.60;;;;;;;19.67;56.18;100842.41;5093976;27;27785;-69
2021/06/04 06:46:43;;;;;;;8.40;4.72;;;;;;;19.78;55.79;100845.25;5095738;28;28878;-65
2021/06/04 06:49:09;;;;;;;9.40;4.63;;;;;;;19.94;55.42;100843.13;5094945;28;20052;-69
2021/06/04 06:51:35;;;;;;;8.93;4.68;;;;;;;20.14;55.83;100844.91;5095029;28;20078;-64
2021/06/04 06:54:01;;;;;;;7.70;4.15;;;;;;;20.42;55.22;100853.44;5096828;28;20036;-72
2021/06/04 06:56:26;;;;;;;5.30;4.07;;;;;;;20.58;53.75;100849.34;5096140;28;20487;-69
2021/06/04 06:58:52;;;;;;;6.75;4.07;;;;;;;20.67;52.86;100846.38;5095748;28;34135;-69
2021/06/04 07:01:17;;;;;;;5.43;4.05;;;;;;;20.62;51.19;100852.47;5096170;28;20032;-69
2021/06/04 07:03:43;;;;;;;8.52;4.00;;;;;;;20.46;50.96;100843.00;5096321;28;29237;-66
2021/06/04 07:06:12;;;;;;;8.50;4.07;;;;;;;20.58;51.53;100843.94;5095263;28;20423;-60
2021/06/04 07:08:37;;;;;;;6.00;3.90;;;;;;;20.75;50.69;100846.13;5096740;28;20107;-67
2021/06/04 07:11:03;;;;;;;5.88;3.75;;;;;;;20.88;49.21;100839.78;5095624;28;20040;-63
2021/06/04 07:13:28;;;;;;;6.00;4.05;;;;;;;20.85;48.66;100846.47;5096395;28;20040;-59
2021/06/04 07:15:59;;;;;;;7.35;4.13;;;;;;;20.82;48.38;100841.50;5088074;28;36908;-72
2021/06/04 07:18:27;;;;;;;5.70;3.63;;;;;;;20.82;47.24;100846.91;5074544;28;20037;-63
2021/06/04 07:20:52;;;;;;;5.20;3.10;;;;;;;20.83;47.17;100839.59;5074626;28;20847;-67
2021/06/04 07:23:18;;;;;;;7.07;3.88;;;;;;;21.10;47.57;100842.88;5074024;28;20033;-63
2021/06/04 07:25:44;;;;;;;4.68;3.28;;;;;;;21.24;47.06;100839.00;5074606;28;20028;-67
2021/06/04 07:28:11;;;;;;;8.98;3.83;;;;;;;21.43;46.15;100842.53;5074051;28;20025;-70
2021/06/04 07:30:41;;;;;;;7.00;5.22;;;;;;;21.67;46.40;100847.28;5074465;28;20048;-69
2021/06/04 07:33:11;;;;;;;5.85;3.42;;;;;;;21.83;44.93;100834.97;5073992;28;20852;-64
2021/06/04 07:35:36;;;;;;;;;;;;;;;21.82;44.86;100847.69;5075014;28;20033;-69
2021/06/04 07:38:02;;;;;;;4.90;3.53;;;;;;;21.71;43.32;100840.34;5074307;28;19917;-68
2021/06/04 07:40:30;;;;;;;6.05;3.72;;;;;;;21.67;43.33;100844.56;5073953;28;20029;-68
2021/06/04 07:42:57;;;;;;;5.82;3.40;;;;;;;21.74;43.58;100843.41;5076840;28;20162;-65
2021/06/04 07:45:23;;;;;;;10.32;3.85;;;;;;;21.96;43.83;100830.16;5091837;28;20109;-68
2021/06/04 07:47:49;;;;;;;5.53;3.38;;;;;;;22.19;42.50;100834.03;5094334;28;20744;-60
2021/06/04 07:50:14;;;;;;;6.85;3.60;;;;;;;22.31;42.30;100836.78;5093641;28;25354;-66
2021/06/04 07:52:39;;;;;;;6.45;3.22;;;;;;;22.50;41.91;100850.28;5091422;28;39488;-74
2021/06/04 07:55:07;;;;;;;5.72;3.50;;;;;;;22.44;40.98;100838.47;5094321;28;20025;-70
2021/06/04 07:57:32;;;;;;;6.97;3.28;;;;;;;22.53;41.13;100856.09;5093479;28;20903;-72
2021/06/04 07:59:58;;;;;;;7.97;2.95;;;;;;;22.55;40.16;100843.09;5093524;28;20085;-65
2021/06/04 08:02:23;;;;;;;3.72;2.53;;;;;;;22.50;39.33;100845.69;5090167;28;34166;-70
2021/06/04 08:04:51;;;;;;;6.88;2.80;;;;;;;22.55;39.61;100840.38;5089365;28;37177;-65
2021/06/04 08:07:16;;;;;;;7.15;3.13;;;;;;;22.72;39.26;100840.53;5094092;28;20040;-68
2021/06/04 08:09:42;;;;;;;6.85;2.90;;;;;;;22.89;37.88;100870.50;5093674;28;24498;-71
2021/06/04 08:12:08;;;;;;;5.05;2.97;;;;;;;22.95;37.83;100847.00;5095323;28;20032;-68
2021/06/04 08:14:33;;;;;;;4.78;2.53;;;;;;;23.18;37.05;100857.06;5094764;28;20025;-69
2021/06/04 08:17:00;;;;;;;4.78;2.88;;;;;;;23.26;37.15;100853.97;5095386;28;20025;-63
2021/06/04 08:19:26;;;;;;;5.05;2.45;;;;;;;23.28;36.07;100859.22;5094859;28;20028;-70
2021/06/04 08:21:53;;;;;;;3.85;2.45;;;;;;;23.22;35.73;100846.56;5095113;28;20021;-68
2021/06/04 08:24:22;;;;;;;6.20;2.95;;;;;;;23.32;36.30;100844.06;5094982;28;20032;-66
2021/06/04 08:26:48;;;;;;;5.90;2.80;;;;;;;23.53;35.77;100836.34;5095149;28;20035;-68
2021/06/04 08:29:13;;;;;;;4.85;2.63;;;;;;;23.77;35.33;100847.94;5095280;28;20028;-70
2021/06/04 08:31:39;;;;;;;5.63;3.00;;;;;;;23.91;35.08;100835.75;5094965;28;20074;-69
2021/06/04 08:34:04;;;;;;;6.20;3.08;;;;;;;24.05;34.97;100843.59;5095154;28;20048;-65
2021/06/04 08:36:33;;;;;;;5.20;3.00;;;;;;;24.11;34.38;100834.44;5094859;28;20078;-69
2021/06/04 08:39:01;;;;;;;6.70;3.75;;;;;;;24.30;33.92;100852.22;5093458;28;20162;-72
2021/06/04 08:42:03;;;;;;;4.75;2.72;;;;;;;24.39;33.17;100849.09;5094651;28;20043;-67
2021/06/04 08:44:37;;;;;;;6.30;2.95;;;;;;;24.55;34.07;100831.09;5094894;28;20103;-74
2021/06/04 08:47:14;;;;;;;5.22;2.72;;;;;;;24.83;33.69;100835.66;5093994;28;20041;-66
2021/06/04 08:49:58;;;;;;;5.47;2.50;;;;;;;24.88;31.83;100851.25;5092499;28;20832;-71
2021/06/04 08:52:43;;;;;;;3.22;2.35;;;;;;;24.50;30.94;100840.03;5090338;28;20040;-67
2021/06/04 08:55:22;;;;;;;5.35;2.65;;;;;;;24.58;31.82;100836.88;5088508;28;20032;-67
2021/06/04 08:58:17;;;;;;;3.60;2.72;;;;;;;24.71;30.28;100833.03;5092321;28;20032;-67
2021/06/04 09:00:50;;;;;;;7.10;2.67;;;;;;;24.77;30.79;100836.66;5052369;28;20179;-65
2021/06/04 09:03:25;;;;;;;5.43;2.20;;;;;;;24.84;30.17;100823.69;5093204;28;20039;-66
2021/06/04 09:05:53;;;;;;;4.22;2.60;;;;;;;24.82;29.84;100823.94;5093151;28;20028;-68
2021/06/04 09:08:23;;;;;;;7.38;2.40;;;;;;;24.89;30.31;100823.78;5075805;28;20823;-64
2021/06/04 09:10:49;;;;;;;;;;;;;;;25.20;30.66;100820.63;5075991;28;20043;-61
2021/06/04 09:13:23;;;;;;;4.47;2.83;;;;;;;25.18;29.63;100812.72;5093797;28;19920;-62
2021/06/04 09:15:53;;;;;;;3.70;2.63;;;;;;;25.42;30.93;100818.75;5093892;28;20467;-62
2021/06/04 09:18:23;;;;;;;6.27;2.70;;;;;;;25.84;30.56;100815.41;5092290;28;20094;-64
2021/06/04 09:21:03;;;;;;;8.13;2.85;;;;;;;25.91;29.80;100831.56;5090538;28;20035;-61
2021/06/04 09:23:30;;;;;;;;;;;;;;;26.21;30.63;100816.59;5059859;28;20024;-64
2021/06/04 09:25:56;;;;;;;5.32;2.78;;;;;;;26.45;29.14;100822.53;5093359;28;19916;-64
2021/06/04 09:28:35;;;;;;;5.47;3.00;;;;;;;26.55;28.95;100816.31;5093405;28;20439;-60
2021/06/04 09:31:41;;;;;;;4.10;2.55;;;;;;;26.85;28.81;100812.19;5090110;28;20025;-65
2021/06/04 09:34:34;;;;;;;7.43;2.83;;;;;;;26.96;28.19;100813.88;5094184;28;20037;-64
2021/06/04 09:37:09;;;;;;;5.18;2.60;;;;;;;26.62;27.22;100825.09;5096080;28;20057;-69
2021/06/04 09:40:07;;;;;;;4.80;2.25;;;;;;;26.46;27.32;100812.44;5096093;28;20024;-61
2021/06/04 09:42:33;;;;;;;7.75;2.40;;;;;;;26.65;27.32;100812.84;5096673;28;20456;-67
2021/06/04 09:45:11;;;;;;;12.07;3.22;;;;;;;26.57;26.73;100810.59;5096147;28;20812;-61
2021/06/04 09:47:46;;;;;;;7.30;3.28;;;;;;;26.48;26.56;100815.72;5097276;28;20049;-66
2021/06/04 09:50:32;;;;;;;4.43;2.70;;;;;;;26.64;27.38;100809.28;5097524;28;20029;-64
2021/06/04 09:53:02;;;;;;;5.93;2.90;;;;;;;26.54;26.32;100816.59;5092515;28;20040;-67
2021/06/04 09:55:30;;;;;;;5.22;2.30;;;;;;;26.57;26.58;100811.41;5095713;28;20503;-63
2021/06/04 09:58:16;;;;;;;6.65;3.15;;;;;;;26.65;26.78;100805.44;5095751;28;20032;-63
2021/06/04 10:00:55;;;;;;;7.72;2.72;;;;;;;26.90;26.13;100806.75;5097379;28;20032;-63
2021/06/04 10:03:25;;;;;;;3.90;2.58;;;;;;;26.95;26.44;100812.22;5097902;28;20040;-64
2021/06/04 10:06:10;;;;;;;6.63;3.00;;;;;;;27.23;26.31;100804.72;5097474;28;20488;-63
2021/06/04 10:08:42;;;;;;;5.32;2.40;;;;;;;27.06;25.59;100791.22;5096250;28;20033;-75
2021/06/04 10:11:35;;;;;;;5.53;2.30;;;;;;;26.89;25.74;100796.06;5097797;28;20115;-70
2021/06/04 10:14:07;;;;;;;3.55;2.30;;;;;;;26.77;25.68;100821.69;5097087;28;20062;-65
2021/06/04 10:19:25;;;;;;;5.32;2.50;;;;;;;27.27;27.26;100807.72;5093871;28;20045;-66
2021/06/04 10:21:54;;;;;;;5.45;2.70;;;;;;;27.48;25.95;100798.53;5095464;28;20033;-62
2021/06/04 10:24:26;;;;;;;3.88;2.17;;;;;;;27.76;26.33;100798.34;5095466;28;20044;-67
2021/06/04 10:26:54;;;;;;;5.65;2.72;;;;;;;27.67;25.50;100811.75;5078624;28;20029;-66
2021/06/04 10:29:19;;;;;;;4.63;2.45;;;;;;;27.24;24.86;100809.09;5084314;27;20024;-62
2021/06/04 10:32:15;;;;;;;11.40;5.90;;;;;;;27.11;25.66;100804.94;5096579;28;24303;-70
2021/06/04 10:34:43;;;;;;;5.43;2.80;;;;;;;27.08;25.62;100793.69;5095647;28;20919;-65
2021/06/04 10:37:17;;;;;;;4.55;2.55;;;;;;;26.92;25.54;100799.09;5096714;28;20566;-67
2021/06/04 10:39:46;;;;;;;7.03;2.70;;;;;;;26.88;25.79;100805.38;5079734;28;20036;-62
2021/06/04 10:42:30;;;;;;;4.25;2.58;;;;;;;26.66;25.48;100798.91;5095565;28;20040;-62
2021/06/04 10:45:14;;;;;;;6.03;2.70;;;;;;;26.42;26.06;100800.38;5095321;28;20051;-70
2021/06/04 10:48:04;;;;;;;4.68;2.92;;;;;;;26.58;26.80;100780.28;5096625;28;20048;-71
2021/06/04 10:50:36;;;;;;;4.43;2.53;;;;;;;26.96;26.65;100802.94;5078189;28;20033;-65
2021/06/04 10:53:05;;;;;;;5.03;2.88;;;;;;;27.17;26.56;100783.91;5078901;28;20707;-66
2021/06/04 10:55:49;;;;;;;4.78;2.53;;;;;;;27.45;26.00;100785.41;5096585;28;20032;-61
2021/06/04 10:58:17;;;;;;;3.92;2.50;;;;;;;27.75;26.60;100780.25;5078363;28;20485;-67
2021/06/04 11:00:59;;;;;;;8.20;3.10;;;;;;;27.99;25.11;100786.84;5096606;28;20024;-60
2021/06/04 11:03:57;;;;;;;5.00;2.72;;;;;;;27.66;25.13;100782.72;5078819;28;20531;-64
2021/06/04 11:06:27;;;;;;;4.70;2.40;;;;;;;27.06;24.89;100782.22;5085390;28;20049;-61
2021/06/04 11:09:20;;;;;;;4.88;2.88;;;;;;;26.74;25.90;100799.56;5095186;28;20028;-62
2021/06/04 11:12:09;;;;;;;5.88;2.70;;;;;;;26.67;26.29;100784.16;5096663;28;20503;-60
2021/06/04 11:14:56;;;;;;;3.67;2.53;;;;;;;26.95;26.80;100779.41;5096529;28;20037;-60
2021/06/04 11:17:32;;;;;;;5.78;3.20;;;;;;;27.14;26.17;100781.72;5096399;28;20059;-60
2021/06/04 11:20:19;;;;;;;4.65;3.10;;;;;;;27.10;26.13;100775.13;5096101;28;20032;-60
2021/06/04 11:23:07;;;;;;;4.30;2.45;;;;;;;27.31;26.31;100771.38;5095220;28;20036;-60
2021/06/04 11:26:31;;;;;;;4.43;2.78;;;;;;;27.58;26.80;100770.38;5080511;28;20648;-60
2021/06/04 11:29:03;;;;;;;4.50;2.67;;;;;;;27.51;25.92;100769.81;5005608;28;20051;-61
2021/06/04 11:31:28;;;;;;;4.63;2.72;;;;;;;27.64;26.13;100763.00;5095169;28;20127;-63
2021/06/04 11:33:54;;;;;;;3.88;2.72;;;;;;;27.59;25.76;100758.34;5095751;28;20532;-61
2021/06/04 11:36:22;;;;;;;4.22;2.70;;;;;;;27.44;25.51;100763.78;5077861;28;20115;-61
2021/06/04 11:39:05;;;;;;;7.75;3.22;;;;;;;27.27;25.83;100770.28;5095676;28;20041;-62
2021/06/04 11:41:50;;;;;;;5.55;3.08;;;;;;;27.24;25.66;100757.13;5094681;28;20119;-61
2021/06/04 11:44:41;;;;;;;9.10;3.22;;;;;;;27.08;26.16;100769.94;5094513;28;20055;-66
2021/06/04 11:47:13;;;;;;;5.47;2.70;;;;;;;26.99;25.94;100763.31;5094203;28;20032;-68
2021/06/04 11:49:57;;;;;;;5.03;2.60;;;;;;;26.91;26.64;100755.63;5094964;28;20047;-67
2021/06/04 11:52:46;;;;;;;4.20;3.00;;;;;;;27.36;27.16;100748.72;5095375;28;20756;-64
2021/06/04 11:55:27;;;;;;;4.32;2.60;;;;;;;27.29;26.17;100754.41;5095182;28;20028;-67
2021/06/04 11:58:00;;;;;;;5.55;3.08;;;;;;;27.19;26.61;100746.19;5094566;28;20110;-64
2021/06/04 12:00:25;;;;;;;5.40;3.05;;;;;;;27.27;26.99;100740.19;5077833;28;20032;-66
2021/06/04 12:03:09;;;;;;;5.07;3.08;;;;;;;27.40;27.18;100747.09;5095207;28;20029;-70
2021/06/04 12:05:34;;;;;;;4.25;2.67;;;;;;;27.42;26.24;100749.53;5095090;28;20037;-67
2021/06/04 12:08:11;;;;;;;3.88;2.80;;;;;;;27.25;26.64;100742.34;5095946;28;20042;-68
2021/06/04 12:10:49;;;;;;;3.72;2.63;;;;;;;27.33;26.99;100741.03;5095263;28;20032;-70
2021/06/04 12:13:31;;;;;;;3.20;2.58;;;;;;;27.48;27.02;100734.81;5095623;28;20086;-64
2021/06/04 12:16:14;;;;;;;6.88;2.63;;;;;;;27.66;27.08;100731.53;5095662;28;20036;-66
2021/06/04 12:18:49;;;;;;;4.32;2.85;;;;;;;27.76;26.61;100732.66;5079192;28;20067;-64
2021/06/04 12:21:54;;;;;;;5.55;2.85;;;;;;;27.62;26.70;100726.88;5094866;28;20826;-66
2021/06/04 12:24:22;;;;;;;5.75;2.88;;;;;;;27.67;26.60;100738.66;5094421;28;20103;-66
2021/06/04 12:26:55;;;;;;;3.72;2.75;;;;;;;27.57;26.47;100726.88;5095375;28;20036;-70
2021/06/04 12:29:20;;;;;;;4.55;2.53;;;;;;;27.61;26.68;100727.97;5060875;28;20044;-65
2021/06/04 12:31:53;;;;;;;5.40;2.70;;;;;;;27.55;26.08;100718.94;5095023;28;20468;-65
2021/06/04 12:34:48;;;;;;;7.28;2.90;;;;;;;27.63;26.99;100721.13;5095356;28;20063;-63
2021/06/04 12:37:20;;;;;;;4.18;2.90;;;;;;;27.92;27.18;100711.59;5076330;28;20045;-61
2021/06/04 12:39:51;;;;;;;6.78;2.90;;;;;;;27.92;25.93;100709.66;5094835;28;20037;-62
2021/06/04 12:42:26;;;;;;;5.40;2.97;;;;;;;27.75;26.46;100709.94;5094729;28;20075;-68
2021/06/04 12:44:51;;;;;;;4.10;2.67;;;;;;;27.77;26.75;100710.47;5094992;28;20037;-61
2021/06/04 12:47:17;;;;;;;3.95;2.50;;;;;;;27.75;26.49;100709.09;5094502;28;20028;-61
2021/06/04 12:49:42;;;;;;;5.53;2.70;;;;;;;27.76;26.50;100702.53;5093728;28;20028;-61
2021/06/04 12:52:19;;;;;;;6.72;2.90;;;;;;;27.58;26.05;100698.41;5093887;28;29499;-67
2021/06/04 12:54:44;;;;;;;4.57;2.50;;;;;;;27.78;27.17;100697.63;5094848;28;20024;-70
2021/06/04 12:57:25;;;;;;;5.68;2.70;;;;;;;27.73;25.77;100695.69;5093125;28;40374;-70
2021/06/04 12:59:51;;;;;;;5.18;2.50;;;;;;;27.70;26.80;100697.06;5093378;28;20037;-63
2021/06/04 13:02:21;;;;;;;6.80;2.42;;;;;;;28.06;27.01;100698.19;5094398;28;20021;-67
2021/06/04 13:04:48;;;;;;;4.05;2.97;;;;;;;28.33;26.40;100690.47;5095266;28;20025;-69
2021/06/04 13:07:23;;;;;;;4.88;2.72;;;;;;;28.51;26.51;100688.22;5093316;28;20561;-61
2021/06/04 13:10:21;;;;;;;3.35;2.42;;;;;;;28.54;25.40;100682.19;5095837;28;20040;-64
2021/06/04 13:12:47;;;;;;;4.85;2.92;;;;;;;28.58;26.09;100677.78;5097475;28;20068;-67
2021/06/04 13:15:25;;;;;;;5.40;2.80;;;;;;;28.82;25.69;100680.75;5097336;28;20036;-67
2021/06/04 13:17:52;;;;;;;4.03;2.65;;;;;;;28.63;25.45;100677.81;5097787;28;20028;-65
2021/06/04 13:20:22;;;;;;;7.35;2.65;;;;;;;28.68;25.93;100679.72;5097804;28;20499;-64
2021/06/04 13:22:48;;;;;;;4.25;2.60;;;;;;;28.76;25.42;100675.56;5097479;28;20508;-66
2021/06/04 13:25:25;;;;;;;4.25;2.40;;;;;;;28.53;25.00;100675.09;5098078;28;20040;-65
2021/06/04 13:28:13;;;;;;;4.43;2.50;;;;;;;28.52;25.54;100670.69;5098159;28;20028;-65
2021/06/04 13:30:41;;;;;;;5.60;2.78;;;;;;;28.41;24.69;100669.09;5098011;28;20170;-64
2021/06/04 13:33:11;;;;;;;3.15;2.58;;;;;;;28.18;25.25;100669.41;5079734;28;20396;-63
2021/06/04 13:35:40;;;;;;;5.85;2.80;;;;;;;28.02;24.74;100665.88;5079936;28;20082;-63
2021/06/04 13:38:12;;;;;;;5.00;2.70;;;;;;;27.79;25.33;100666.41;5079860;28;20064;-66
2021/06/04 13:40:39;;;;;;;4.43;2.47;;;;;;;27.70;25.37;100669.69;5096361;28;20464;-62
2021/06/04 13:43:07;;;;;;;5.85;2.65;;;;;;;27.48;25.38;100655.47;5095832;28;20028;-64
2021/06/04 13:45:52;;;;;;;5.65;2.97;;;;;;;27.57;25.73;100656.56;5097734;28;20459;-65
2021/06/04 13:48:32;;;;;;;5.28;2.95;;;;;;;27.44;25.54;100649.69;5095724;28;20037;-63
2021/06/04 13:51:05;;;;;;;;;;;;;;;27.43;25.69;100652.72;5097999;28;20052;-64
2021/06/04 13:53:39;;;;;;;8.50;2.70;;;;;;;27.35;25.93;100648.56;5098109;28;20757;-62
